createdAt,value
2023-02-04T00:01:57.635Z,5.07
2023-02-04T00:04:01.800Z,2.28
2023-02-04T00:06:06.418Z,1.10
2023-02-04T00:08:10.784Z,1.08
2023-02-04T00:10:15.175Z,1.92
2023-02-04T00:12:20.918Z,3.78
2023-02-04T00:14:25.046Z,2.17
2023-02-04T00:16:29.208Z,2.00
2023-02-04T00:18:33.371Z,1.83
2023-02-04T00:20:37.940Z,2.95
2023-02-04T00:22:42.086Z,3.33
2023-02-04T00:24:49.807Z,5.72
2023-02-04T00:26:53.885Z,2.65
2023-02-04T00:28:59.417Z,4.55
2023-02-04T00:31:03.533Z,6.35
2023-02-04T00:33:07.825Z,4.93
2023-02-04T00:35:12.115Z,1.73
2023-02-04T00:37:16.196Z,2.08
2023-02-04T00:39:20.341Z,2.65
2023-02-04T00:41:24.485Z,3.53
2023-02-04T00:43:28.587Z,2.90
2023-02-04T00:45:34.041Z,2.50
2023-02-04T00:47:38.303Z,2.33
2023-02-04T00:49:42.393Z,4.53
2023-02-04T00:51:46.743Z,2.53
2023-02-04T00:53:50.997Z,4.10
2023-02-04T00:55:55.191Z,2.67
2023-02-04T00:57:59.358Z,2.85
2023-02-04T01:00:03.467Z,2.28
2023-02-04T01:02:08.922Z,2.65
2023-02-04T01:04:13.120Z,5.15
2023-02-04T01:06:17.199Z,3.67
2023-02-04T01:08:21.615Z,2.67
2023-02-04T01:10:26.641Z,3.60
2023-02-04T01:12:30.799Z,1.75
2023-02-04T01:14:35.287Z,2.53
2023-02-04T01:16:39.448Z,1.75
2023-02-04T01:18:44.932Z,2.45
2023-02-04T01:20:49.346Z,1.77
2023-02-04T01:22:54.505Z,5.18
2023-02-04T01:24:58.596Z,3.05
2023-02-04T01:27:18.562Z,1.00
2023-02-04T01:29:22.651Z,2.17
2023-02-04T01:31:28.305Z,1.23
2023-02-04T01:33:32.644Z,2.42
2023-02-04T01:35:38.157Z,1.80
2023-02-04T01:37:42.266Z,2.80
2023-02-04T01:39:46.337Z,1.88
2023-02-04T01:41:50.833Z,2.35
2023-02-04T01:43:54.912Z,2.05
2023-02-04T01:45:59.078Z,1.55
2023-02-04T01:48:04.059Z,1.42
2023-02-04T01:50:09.166Z,1.08
2023-02-04T01:52:14.718Z,3.92
2023-02-04T01:54:20.836Z,1.70
2023-02-04T01:56:26.423Z,1.00
2023-02-04T01:58:30.823Z,2.03
2023-02-04T02:00:35.557Z,3.08
2023-02-04T02:02:46.779Z,1.42
2023-02-04T02:04:50.891Z,2.60
2023-02-04T02:06:57.523Z,1.10
2023-02-04T02:09:02.990Z,1.58
2023-02-04T02:11:07.262Z,1.50
2023-02-04T02:13:12.575Z,1.38
2023-02-04T02:15:17.222Z,1.83
2023-02-04T02:17:21.315Z,1.95
2023-02-04T02:19:27.190Z,4.25
2023-02-04T02:21:34.346Z,2.08
2023-02-04T02:23:57.921Z,2.10
2023-02-04T02:26:02.365Z,2.28
2023-02-04T02:28:10.194Z,1.30
2023-02-04T02:30:14.803Z,3.72
2023-02-04T02:32:18.890Z,1.23
2023-02-04T02:34:23.125Z,1.02
2023-02-04T02:36:27.254Z,3.67
2023-02-04T02:38:31.404Z,2.08
2023-02-04T02:40:37.034Z,1.63
2023-02-04T02:42:41.097Z,1.27
2023-02-04T02:44:45.326Z,1.25
2023-02-04T02:46:49.505Z,2.42
2023-02-04T02:48:53.595Z,2.67
2023-02-04T02:50:57.703Z,1.73
2023-02-04T02:53:01.891Z,1.60
2023-02-04T02:55:06.582Z,4.55
2023-02-04T02:57:14.984Z,0.73
2023-02-04T02:59:19.174Z,1.98
2023-02-04T03:01:23.325Z,4.13
2023-02-04T03:03:28.562Z,3.50
2023-02-04T03:05:33.717Z,1.80
2023-02-04T03:07:38.104Z,1.30
2023-02-04T03:09:42.198Z,2.60
2023-02-04T03:11:46.314Z,1.13
2023-02-04T03:13:51.919Z,2.22
2023-02-04T03:15:56.044Z,1.15
2023-02-04T03:18:00.190Z,1.77
2023-02-04T03:20:04.698Z,1.48
2023-02-04T03:22:09.095Z,1.98
2023-02-04T03:24:13.306Z,2.60
2023-02-04T03:26:17.517Z,1.25
2023-02-04T03:28:22.592Z,2.13
2023-02-04T03:30:28.229Z,1.63
2023-02-04T03:32:32.675Z,1.10
2023-02-04T03:34:37.106Z,2.88
2023-02-04T03:36:41.608Z,0.90
2023-02-04T03:38:45.723Z,1.23
2023-02-04T03:40:49.825Z,1.17
2023-02-04T03:42:53.990Z,2.53
2023-02-04T03:44:58.047Z,1.83
2023-02-04T03:47:03.491Z,1.33
2023-02-04T03:49:07.564Z,1.20
2023-02-04T03:51:11.711Z,1.60
2023-02-04T03:53:15.813Z,1.08
2023-02-04T03:55:19.980Z,0.98
2023-02-04T03:57:24.114Z,2.42
2023-02-04T03:59:28.233Z,1.90
2023-02-04T04:01:32.419Z,1.55
2023-02-04T04:03:37.844Z,1.67
2023-02-04T04:05:41.982Z,1.98
2023-02-04T04:07:46.065Z,2.13
2023-02-04T04:09:50.134Z,3.08
2023-02-04T04:11:54.335Z,1.55
2023-02-04T04:13:58.406Z,1.05
2023-02-04T04:16:03.434Z,2.45
2023-02-04T04:18:07.597Z,2.78
2023-02-04T04:20:13.591Z,1.75
2023-02-04T04:22:17.655Z,1.83
2023-02-04T04:24:21.767Z,3.05
2023-02-04T04:26:25.984Z,2.92
2023-02-04T04:28:30.091Z,1.67
2023-02-04T04:30:34.502Z,2.28
2023-02-04T04:32:39.121Z,0.82
2023-02-04T04:34:43.766Z,2.20
2023-02-04T04:36:49.243Z,1.48
2023-02-04T04:38:53.326Z,1.58
2023-02-04T04:40:57.454Z,0.80
2023-02-04T04:43:01.520Z,1.00
2023-02-04T04:45:06.725Z,3.22
2023-02-04T04:47:10.799Z,1.13
2023-02-04T04:49:15.002Z,1.42
2023-02-04T04:51:19.156Z,1.05
2023-02-04T04:53:24.644Z,2.63
2023-02-04T04:55:29.202Z,1.13
2023-02-04T04:57:33.346Z,3.28
2023-02-04T04:59:37.405Z,1.75
2023-02-04T05:01:41.535Z,1.25
2023-02-04T05:03:45.654Z,1.02
2023-02-04T05:05:49.735Z,2.20
2023-02-04T05:07:54.418Z,0.85
2023-02-04T05:09:59.860Z,3.95
2023-02-04T05:12:04.304Z,1.38
2023-02-04T05:14:08.457Z,1.38
2023-02-04T05:16:12.958Z,1.77
2023-02-04T05:18:17.052Z,1.05
2023-02-04T05:20:21.231Z,0.90
2023-02-04T05:22:25.393Z,1.50
2023-02-04T05:24:29.525Z,0.80
2023-02-04T05:26:35.077Z,2.63
2023-02-04T05:28:39.203Z,0.95
2023-02-04T05:30:43.398Z,2.00
2023-02-04T05:32:47.524Z,1.52
2023-02-04T05:34:51.807Z,0.90
2023-02-04T05:36:55.925Z,2.00
2023-02-04T05:39:00.049Z,1.83
2023-02-04T05:41:04.175Z,1.10
2023-02-04T05:43:09.646Z,2.42
2023-02-04T05:45:15.792Z,1.20
2023-02-04T05:47:20.408Z,2.10
2023-02-04T05:49:24.794Z,1.70
2023-02-04T05:51:28.899Z,1.58
2023-02-04T05:53:32.984Z,1.27
2023-02-04T05:55:37.062Z,0.98
2023-02-04T05:57:41.200Z,1.23
2023-02-04T05:59:46.634Z,1.52
2023-02-04T06:01:50.712Z,0.50
2023-02-04T06:03:54.873Z,1.40
2023-02-04T06:05:59.019Z,1.23
2023-02-04T06:08:03.072Z,1.00
2023-02-04T06:10:07.435Z,1.30
2023-02-04T06:12:11.575Z,1.55
2023-02-04T06:14:15.673Z,1.17
2023-02-04T06:16:21.100Z,1.52
2023-02-04T06:18:25.233Z,1.42
2023-02-04T06:20:29.486Z,1.23
2023-02-04T06:22:33.860Z,2.50
2023-02-04T06:24:37.942Z,1.30
2023-02-04T06:26:42.091Z,1.15
2023-02-04T06:28:46.173Z,1.10
2023-02-04T06:30:50.403Z,1.02
2023-02-04T06:32:55.867Z,1.02
2023-02-04T06:35:00.509Z,0.82
2023-02-04T06:37:04.756Z,1.15
2023-02-04T06:39:08.857Z,1.60
2023-02-04T06:41:12.975Z,1.10
2023-02-04T06:43:17.117Z,1.23
2023-02-04T06:45:21.581Z,1.13
2023-02-04T06:47:25.934Z,0.80
2023-02-04T06:49:31.395Z,1.45
2023-02-04T06:51:35.956Z,5.63
2023-02-04T06:53:40.266Z,0.80
2023-02-04T06:55:44.354Z,0.65
2023-02-04T06:57:48.454Z,0.98
2023-02-04T06:59:52.803Z,1.52
2023-02-04T07:01:56.882Z,1.17
2023-02-04T07:04:00.980Z,1.20
2023-02-04T07:06:06.700Z,2.97
2023-02-04T07:08:10.816Z,1.55
2023-02-04T07:10:16.696Z,1.58
2023-02-04T07:12:21.131Z,0.68
2023-02-04T07:14:25.290Z,2.88
2023-02-04T07:16:29.371Z,1.02
2023-02-04T07:18:33.500Z,1.85
2023-02-04T07:20:37.653Z,0.85
2023-02-04T07:22:43.108Z,0.80
2023-02-04T07:24:47.225Z,1.02
2023-02-04T07:26:51.470Z,0.75
2023-02-04T07:28:55.546Z,2.60
2023-02-04T07:30:59.696Z,1.13
2023-02-04T07:33:03.816Z,1.23
2023-02-04T07:35:08.688Z,0.75
2023-02-04T07:37:12.805Z,1.05
2023-02-04T07:39:18.232Z,0.80
2023-02-04T07:41:22.302Z,1.42
2023-02-04T07:43:26.412Z,1.23
2023-02-04T07:45:30.533Z,1.10
2023-02-04T07:47:34.598Z,1.77
2023-02-04T07:49:38.686Z,0.80
2023-02-04T07:51:42.752Z,0.98
2023-02-04T07:53:46.834Z,1.10
2023-02-04T07:55:52.294Z,0.52
2023-02-04T07:57:56.437Z,1.15
2023-02-04T08:00:00.742Z,2.08
2023-02-04T08:02:04.907Z,0.82
2023-02-04T08:04:09.001Z,1.73
2023-02-04T08:06:13.086Z,2.05
2023-02-04T08:08:17.475Z,1.25
2023-02-04T08:10:21.709Z,4.32
2023-02-04T08:12:27.627Z,0.75
2023-02-04T08:14:31.780Z,0.88
2023-02-04T08:16:35.901Z,1.70
2023-02-04T08:18:39.988Z,0.60
2023-02-04T08:20:44.130Z,0.80
2023-02-04T08:22:48.190Z,0.90
2023-02-04T08:24:52.264Z,1.45
2023-02-04T08:26:56.347Z,0.95
2023-02-04T08:29:01.809Z,0.75
2023-02-04T08:31:06.863Z,1.33
2023-02-04T08:33:11.089Z,1.25
2023-02-04T08:35:15.427Z,0.60
2023-02-04T08:37:19.507Z,1.45
2023-02-04T08:39:23.634Z,0.95
2023-02-04T08:41:27.710Z,0.75
2023-02-04T08:43:31.795Z,1.77
2023-02-04T08:45:37.255Z,2.08
2023-02-04T08:47:41.338Z,1.63
2023-02-04T08:49:45.424Z,1.30
2023-02-04T08:51:53.030Z,0.70
2023-02-04T08:53:57.187Z,1.05
2023-02-04T08:56:01.260Z,1.65
2023-02-04T08:58:05.353Z,0.90
2023-02-04T09:00:11.546Z,1.40
2023-02-04T09:02:17.045Z,0.88
2023-02-04T09:04:21.250Z,0.80
2023-02-04T09:06:25.343Z,1.40
2023-02-04T09:08:29.759Z,0.80
2023-02-04T09:10:34.190Z,0.60
2023-02-04T09:12:38.432Z,0.70
2023-02-04T09:14:42.514Z,1.23
2023-02-04T09:16:46.795Z,0.70
2023-02-04T09:18:52.277Z,0.68
2023-02-04T09:20:56.371Z,0.90
2023-02-04T09:23:00.487Z,0.70
2023-02-04T09:25:04.634Z,0.73
2023-02-04T09:27:08.722Z,1.98
2023-02-04T09:29:13.165Z,4.15
2023-02-04T09:31:17.768Z,5.90
2023-02-04T09:33:21.865Z,4.55
2023-02-04T09:35:27.388Z,6.82
2023-02-04T09:37:31.446Z,3.67
2023-02-04T09:39:35.515Z,9.95
2023-02-04T09:41:40.465Z,9.48
2023-02-04T09:43:45.372Z,8.85
2023-02-04T09:45:49.792Z,5.40
2023-02-04T09:47:54.154Z,3.22
2023-02-04T09:49:58.309Z,3.13
2023-02-04T09:52:03.754Z,1.55
2023-02-04T09:54:09.984Z,1.80
2023-02-04T09:56:14.849Z,2.30
2023-02-04T09:58:19.745Z,4.68
2023-02-04T10:00:25.116Z,2.25
2023-02-04T10:02:29.197Z,0.77
2023-02-04T10:04:33.288Z,2.55
2023-02-04T10:06:37.791Z,2.33
2023-02-04T10:08:43.342Z,2.92
2023-02-04T10:10:48.758Z,2.03
2023-02-04T10:12:53.525Z,1.08
2023-02-04T10:14:57.663Z,2.35
2023-02-04T10:17:02.040Z,1.27
2023-02-04T10:19:08.218Z,4.35
2023-02-04T10:21:18.113Z,2.72
2023-02-04T10:23:22.350Z,4.20
2023-02-04T10:25:28.940Z,5.95
2023-02-04T10:27:33.058Z,7.35
2023-02-04T10:29:37.329Z,7.07
2023-02-04T10:31:42.388Z,2.35
2023-02-04T10:33:46.218Z,4.72
2023-02-04T10:35:52.442Z,5.07
2023-02-04T10:38:06.714Z,3.85
2023-02-04T10:40:31.919Z,4.85
2023-02-04T10:42:35.870Z,2.97
2023-02-04T10:44:40.338Z,9.05
2023-02-04T10:46:44.207Z,5.93
2023-02-04T10:48:48.004Z,3.38
2023-02-04T10:50:52.219Z,6.53
2023-02-04T10:53:17.724Z,15.55
2023-02-04T10:55:22.246Z,2.28
2023-02-04T10:57:28.730Z,3.95
2023-02-04T10:59:32.552Z,2.90
2023-02-04T11:01:36.523Z,8.38
2023-02-04T11:03:40.864Z,4.25
2023-02-04T11:05:44.716Z,2.40
2023-02-04T11:07:49.359Z,3.22
2023-02-04T11:09:53.196Z,4.05
2023-02-04T11:11:59.606Z,2.10
2023-02-04T11:14:04.818Z,4.50
2023-02-04T11:16:13.063Z,4.90
2023-02-04T11:18:29.968Z,4.53
2023-02-04T11:20:35.373Z,5.28
2023-02-04T11:22:43.671Z,8.52
2023-02-04T11:24:47.493Z,3.30
2023-02-04T11:26:52.526Z,4.55
2023-02-04T11:29:26.186Z,1.98
2023-02-04T11:31:45.520Z,1.50
2023-02-04T11:33:50.457Z,6.10
2023-02-04T11:36:04.452Z,1.65
2023-02-04T11:38:25.352Z,4.72
2023-02-04T11:42:41.134Z,3.85
2023-02-04T11:44:50.310Z,4.30
2023-02-04T11:46:55.519Z,6.85
2023-02-04T11:49:00.583Z,3.15
2023-02-04T11:51:05.815Z,3.33
2023-02-04T11:53:11.224Z,4.93
2023-02-04T11:55:15.365Z,13.25
2023-02-04T11:57:20.273Z,3.53
2023-02-04T11:59:24.306Z,2.40
2023-02-04T12:01:33.844Z,4.70
2023-02-04T12:03:46.412Z,2.47
2023-02-04T12:05:50.579Z,1.33
2023-02-04T12:07:54.485Z,3.80
2023-02-04T12:09:58.868Z,7.00
2023-02-04T12:12:03.812Z,5.65
2023-02-04T12:14:09.364Z,7.85
2023-02-04T12:16:13.283Z,7.93
2023-02-04T12:18:18.490Z,7.75
2023-02-04T12:20:22.309Z,6.20
2023-02-04T12:22:26.301Z,2.83
2023-02-04T12:24:30.222Z,6.20
2023-02-04T12:26:34.160Z,6.15
2023-02-04T12:28:38.027Z,8.10
2023-02-04T12:30:41.836Z,5.28
2023-02-04T12:32:45.737Z,2.38
2023-02-04T12:34:50.941Z,2.00
2023-02-04T12:36:55.148Z,5.63
2023-02-04T12:38:59.529Z,1.20
2023-02-04T12:41:03.369Z,4.68
2023-02-04T12:43:07.263Z,5.43
2023-02-04T12:45:12.164Z,1.77
2023-02-04T12:47:16.003Z,6.32
2023-02-04T12:49:20.079Z,4.22
2023-02-04T12:51:25.333Z,3.85
2023-02-04T12:53:29.286Z,3.88
2023-02-04T12:55:33.460Z,3.72
2023-02-04T12:57:37.611Z,7.53
2023-02-04T12:59:41.466Z,4.65
2023-02-04T13:01:45.340Z,4.88
2023-02-04T13:03:49.403Z,4.10
2023-02-04T13:05:53.304Z,8.07
2023-02-04T13:07:58.479Z,3.58
2023-02-04T13:10:02.416Z,7.80
2023-02-04T13:12:06.841Z,1.13
2023-02-04T13:14:10.671Z,8.20
2023-02-04T13:16:14.515Z,9.45
2023-02-04T13:18:19.295Z,3.20
2023-02-04T13:20:23.185Z,4.65
2023-02-04T13:22:27.156Z,3.50
2023-02-04T13:24:32.494Z,3.88
2023-02-04T13:26:36.334Z,2.03
2023-02-04T13:28:40.224Z,1.55
2023-02-04T13:30:44.124Z,3.03
2023-02-04T13:32:48.118Z,2.58
2023-02-04T13:34:51.956Z,3.55
2023-02-04T13:36:56.001Z,4.00
2023-02-04T13:39:00.731Z,2.17
2023-02-04T13:41:06.669Z,1.77
2023-02-04T13:43:10.560Z,8.00
2023-02-04T13:45:16.160Z,2.65
2023-02-04T13:47:20.161Z,2.28
2023-02-04T13:49:24.088Z,2.42
2023-02-04T13:51:27.943Z,2.47
2023-02-04T13:53:31.844Z,6.78
2023-02-04T13:55:35.967Z,2.55
2023-02-04T13:57:41.111Z,2.38
2023-02-04T13:59:44.973Z,7.57
2023-02-04T14:01:48.795Z,4.05
2023-02-04T14:03:52.624Z,6.35
2023-02-04T14:05:57.396Z,5.18
2023-02-04T14:08:01.239Z,2.13
2023-02-04T14:10:05.937Z,2.70
2023-02-04T14:12:09.774Z,2.55
2023-02-04T14:14:14.959Z,2.45
2023-02-04T14:16:18.914Z,1.63
2023-02-04T14:18:22.770Z,5.78
2023-02-04T14:20:26.577Z,2.70
2023-02-04T14:22:30.413Z,6.05
2023-02-04T14:24:34.243Z,3.28
2023-02-04T14:26:38.084Z,3.15
2023-02-04T14:28:41.875Z,7.88
2023-02-04T14:30:47.096Z,8.95
2023-02-04T14:32:50.982Z,14.52
2023-02-04T14:34:55.109Z,13.70
2023-02-04T14:36:59.079Z,36.38
2023-02-04T14:39:02.906Z,75.18
2023-02-04T14:41:07.103Z,59.67
2023-02-04T14:43:11.938Z,54.90
2023-02-04T14:45:15.954Z,84.72
2023-02-04T14:47:21.244Z,69.75
2023-02-04T14:49:25.644Z,74.60
2023-02-04T14:51:29.476Z,77.53
2023-02-04T14:53:33.272Z,59.30
2023-02-04T14:55:37.128Z,73.68
2023-02-04T14:57:40.929Z,73.25
2023-02-04T14:59:44.728Z,60.35
2023-02-04T15:01:48.621Z,59.40
2023-02-04T15:03:53.802Z,66.40
2023-02-04T15:05:57.642Z,59.85
2023-02-04T15:08:01.452Z,68.43
2023-02-04T15:10:06.109Z,61.10
2023-02-04T15:12:09.895Z,79.38
2023-02-04T15:14:13.681Z,62.83
2023-02-04T15:16:17.841Z,67.18
2023-02-04T15:18:21.746Z,57.20
2023-02-04T15:20:26.896Z,61.65
2023-02-04T15:22:31.055Z,73.50
2023-02-04T15:24:34.851Z,65.65
2023-02-04T15:26:38.925Z,59.17
2023-02-04T15:28:42.736Z,67.03
2023-02-04T15:30:46.682Z,60.55
2023-02-04T15:32:50.532Z,58.55
2023-02-04T15:34:54.346Z,71.97
2023-02-04T15:36:59.597Z,54.60
2023-02-04T15:39:03.648Z,53.53
2023-02-04T15:41:07.474Z,53.80
2023-02-04T15:43:11.279Z,55.17
2023-02-04T15:45:15.149Z,74.45
2023-02-04T15:47:19.749Z,57.00
2023-02-04T15:49:23.614Z,57.92
2023-02-04T15:51:27.442Z,56.95
2023-02-04T15:53:34.639Z,58.42
2023-02-04T15:55:38.444Z,53.45
2023-02-04T15:57:42.623Z,59.70
2023-02-04T15:59:46.429Z,64.85
2023-02-04T16:01:50.662Z,59.97
2023-02-04T16:03:56.438Z,48.85
2023-02-04T16:06:00.321Z,61.13
2023-02-04T16:08:04.241Z,47.75
2023-02-04T16:10:10.067Z,47.25
2023-02-04T16:12:13.912Z,57.60
2023-02-04T16:14:17.755Z,50.42
2023-02-04T16:16:21.618Z,44.15
2023-02-04T16:18:25.653Z,52.50
2023-02-04T16:20:29.579Z,43.80
2023-02-04T16:22:33.395Z,46.38
2023-02-04T16:24:38.511Z,42.15
2023-02-04T16:26:43.699Z,40.90
2023-02-04T16:28:47.850Z,48.95
2023-02-04T16:30:51.747Z,35.88
2023-02-04T16:32:55.651Z,55.13
2023-02-04T16:35:00.387Z,41.08
2023-02-04T16:37:04.232Z,42.40
2023-02-04T16:39:08.234Z,35.97
2023-02-04T16:41:14.121Z,37.25
2023-02-04T16:43:19.291Z,43.50
2023-02-04T16:45:24.321Z,40.00
2023-02-04T16:47:28.256Z,38.38
2023-02-04T16:49:32.084Z,32.85
2023-02-04T16:51:35.946Z,28.08
2023-02-04T16:53:39.804Z,35.28
2023-02-04T16:55:44.007Z,32.60
2023-02-04T16:57:47.837Z,39.05
2023-02-04T16:59:53.013Z,38.00
2023-02-04T17:01:57.581Z,27.98
2023-02-04T17:04:01.476Z,33.67
2023-02-04T17:06:05.849Z,33.63
2023-02-04T17:08:11.128Z,39.25
2023-02-04T17:10:37.201Z,38.15
2023-02-04T17:12:40.994Z,32.67
2023-02-04T17:14:44.807Z,36.10
2023-02-04T17:16:51.377Z,28.63
2023-02-04T17:18:55.867Z,42.72
2023-02-04T17:21:00.050Z,30.10
2023-02-04T17:23:03.921Z,36.38
2023-02-04T17:25:08.578Z,30.63
2023-02-04T17:27:12.379Z,29.45
2023-02-04T17:29:17.805Z,31.15
2023-02-04T17:31:22.796Z,25.08
2023-02-04T17:33:28.546Z,30.23
2023-02-04T17:35:33.290Z,28.77
2023-02-04T17:37:37.241Z,26.27
2023-02-04T17:39:41.231Z,33.85
2023-02-04T17:41:45.055Z,31.50
2023-02-04T17:43:48.884Z,24.05
2023-02-04T17:45:52.740Z,43.10
2023-02-04T17:47:56.555Z,28.58
2023-02-04T17:50:03.554Z,32.13
2023-02-04T17:52:07.409Z,29.23
2023-02-04T17:54:12.752Z,25.48
2023-02-04T17:56:16.717Z,30.95
2023-02-04T17:58:23.124Z,23.67
2023-02-04T18:00:29.867Z,25.63
2023-02-04T18:02:34.145Z,21.63
2023-02-04T18:04:41.341Z,28.35
2023-02-04T18:06:52.607Z,24.98
2023-02-04T18:09:01.477Z,25.98
2023-02-04T18:11:14.034Z,20.83
2023-02-04T18:13:25.538Z,28.15
2023-02-04T18:15:31.148Z,21.30
2023-02-04T18:17:35.344Z,24.23
2023-02-04T18:19:40.493Z,22.95
2023-02-04T18:21:46.525Z,22.90
2023-02-04T18:24:11.471Z,25.38
2023-02-04T18:26:17.957Z,21.80
2023-02-04T18:28:22.710Z,27.40
2023-02-04T18:30:27.808Z,27.08
2023-02-04T18:32:36.807Z,25.00
2023-02-04T18:34:42.191Z,26.38
2023-02-04T18:36:47.402Z,33.28
2023-02-04T18:38:51.522Z,29.92
2023-02-04T18:41:03.615Z,38.55
2023-02-04T18:43:17.896Z,37.08
2023-02-04T18:45:24.917Z,37.15
2023-02-04T18:47:32.144Z,29.60
2023-02-04T18:49:37.260Z,40.47
2023-02-04T18:51:41.485Z,36.72
2023-02-04T18:53:46.727Z,37.95
2023-02-04T18:55:51.677Z,48.85
2023-02-04T18:57:55.491Z,37.40
2023-02-04T19:00:18.373Z,39.83
2023-02-04T19:02:36.296Z,32.13
2023-02-04T19:04:40.147Z,50.00
2023-02-04T19:06:44.797Z,28.70
2023-02-04T19:08:49.961Z,38.45
2023-02-04T19:10:55.086Z,37.00
2023-02-04T19:13:11.939Z,34.05
2023-02-04T19:15:34.890Z,30.40
2023-02-04T19:17:38.923Z,35.58
2023-02-04T19:19:45.187Z,31.38
2023-02-04T19:21:49.465Z,28.90
2023-02-04T19:23:59.670Z,33.00
2023-02-04T19:26:03.519Z,25.20
2023-02-04T19:28:25.520Z,29.70
2023-02-04T19:30:45.145Z,33.72
2023-02-04T19:32:53.379Z,28.50
2023-02-04T19:35:01.158Z,23.33
2023-02-04T19:37:16.567Z,27.15
2023-02-04T19:39:30.540Z,28.63
2023-02-04T19:41:41.485Z,46.33
2023-02-04T19:43:45.457Z,36.22
2023-02-04T19:45:50.849Z,27.67
2023-02-04T19:47:55.271Z,26.05
2023-02-04T19:50:14.838Z,31.55
2023-02-04T19:52:34.693Z,29.55
2023-02-04T19:54:40.308Z,24.77
2023-02-04T19:56:44.125Z,35.92
2023-02-04T19:58:47.960Z,27.75
2023-02-04T20:00:58.292Z,26.00
2023-02-04T20:03:02.233Z,29.50
2023-02-04T20:05:15.982Z,23.30
2023-02-04T20:07:20.998Z,40.53
2023-02-04T20:09:29.138Z,29.92
2023-02-04T20:12:05.618Z,27.08
2023-02-04T20:14:40.354Z,21.63
2023-02-04T20:16:48.707Z,24.52
2023-02-04T20:18:52.905Z,24.10
2023-02-04T20:20:56.829Z,26.15
2023-02-04T20:23:01.156Z,21.67
2023-02-04T20:25:37.541Z,21.60
2023-02-04T20:27:42.796Z,23.45
2023-02-04T20:29:46.733Z,23.88
2023-02-04T20:31:50.877Z,24.80
2023-02-04T20:33:55.840Z,24.20
2023-02-04T20:36:28.318Z,29.38
2023-02-04T20:38:32.237Z,26.38
2023-02-04T20:40:36.829Z,24.10
2023-02-04T20:42:45.250Z,24.52
2023-02-04T20:44:49.113Z,22.40
2023-02-04T20:46:52.986Z,22.02
2023-02-04T20:48:57.714Z,22.58
2023-02-04T20:51:04.532Z,19.42
2023-02-04T20:53:23.271Z,22.48
2023-02-04T20:55:28.718Z,23.27
2023-02-04T20:57:32.698Z,19.80
2023-02-04T20:59:37.993Z,23.75
2023-02-04T21:01:43.903Z,26.58
2023-02-04T21:03:48.360Z,16.92
2023-02-04T21:05:52.455Z,20.73
2023-02-04T21:07:57.729Z,17.75
2023-02-04T21:10:04.034Z,18.38
2023-02-04T21:12:08.203Z,19.75
2023-02-04T21:14:12.011Z,19.88
2023-02-04T21:16:17.244Z,19.75
2023-02-04T21:18:21.225Z,23.13
2023-02-04T21:20:25.426Z,19.65
2023-02-04T21:22:29.275Z,18.98
2023-02-04T21:24:33.668Z,21.23
2023-02-04T21:26:37.548Z,23.00
2023-02-04T21:28:41.443Z,21.42
2023-02-04T21:30:45.335Z,16.92
2023-02-04T21:32:50.594Z,21.67
2023-02-04T21:34:54.494Z,17.27
2023-02-04T21:36:58.334Z,19.25
2023-02-04T21:39:02.151Z,19.48
2023-02-04T21:41:06.484Z,22.20
2023-02-04T21:43:10.694Z,20.23
2023-02-04T21:45:14.616Z,23.38
2023-02-04T21:47:18.430Z,15.68
2023-02-04T21:49:23.625Z,17.67
2023-02-04T21:51:28.012Z,18.20
2023-02-04T21:53:31.954Z,18.05
2023-02-04T21:55:36.237Z,15.75
2023-02-04T21:57:40.343Z,19.20
2023-02-04T21:59:48.137Z,16.45
2023-02-04T22:01:52.180Z,24.33
2023-02-04T22:03:56.099Z,16.92
2023-02-04T22:06:01.332Z,17.42
2023-02-04T22:08:05.164Z,20.73
2023-02-04T22:10:10.575Z,17.33
2023-02-04T22:12:14.389Z,18.95
2023-02-04T22:14:19.155Z,20.58
2023-02-04T22:16:23.069Z,18.00
2023-02-04T22:18:26.955Z,16.63
2023-02-04T22:20:31.014Z,15.52
2023-02-04T22:22:36.208Z,13.90
2023-02-04T22:24:40.047Z,14.18
2023-02-04T22:26:43.876Z,17.25
2023-02-04T22:28:47.848Z,12.00
2023-02-04T22:30:53.947Z,15.13
2023-02-04T22:33:00.000Z,17.48
2023-02-04T22:35:03.828Z,13.75
2023-02-04T22:37:07.666Z,20.50
2023-02-04T22:39:12.970Z,16.85
2023-02-04T22:41:16.897Z,19.50
2023-02-04T22:43:21.008Z,12.73
2023-02-04T22:45:25.310Z,13.38
2023-02-04T22:47:29.367Z,15.98
2023-02-04T22:49:35.042Z,19.13
2023-02-04T22:51:38.836Z,18.25
2023-02-04T22:53:42.657Z,16.60
2023-02-04T22:55:48.112Z,14.15
2023-02-04T22:57:51.944Z,20.05
2023-02-04T22:59:55.783Z,13.75
2023-02-04T23:01:59.682Z,18.95
2023-02-04T23:04:03.577Z,16.50
2023-02-04T23:06:07.419Z,22.20
2023-02-04T23:08:11.318Z,16.77
2023-02-04T23:10:15.179Z,20.25
2023-02-04T23:12:20.404Z,9.55
2023-02-04T23:14:24.297Z,5.85
2023-02-04T23:16:28.177Z,12.43
2023-02-04T23:18:32.043Z,13.57
2023-02-04T23:20:35.969Z,10.13
2023-02-04T23:22:39.832Z,9.05
2023-02-04T23:24:43.926Z,10.90
2023-02-04T23:26:48.131Z,7.93
2023-02-04T23:28:53.336Z,6.05
2023-02-04T23:30:57.265Z,9.45
2023-02-04T23:33:01.151Z,11.57
2023-02-04T23:35:06.402Z,10.73
2023-02-04T23:37:10.244Z,11.68
2023-02-04T23:39:14.644Z,9.18
2023-02-04T23:41:19.202Z,9.98
2023-02-04T23:43:23.189Z,10.25
2023-02-04T23:45:28.426Z,9.98
2023-02-04T23:47:32.268Z,9.98
2023-02-04T23:49:36.104Z,8.60
2023-02-04T23:51:39.944Z,10.48
2023-02-04T23:53:43.801Z,10.45
2023-02-04T23:55:47.663Z,11.23
2023-02-04T23:57:51.820Z,11.68
2023-02-04T23:59:55.653Z,8.07
